sensor_id;sensor_type;location;lat;lon;timestamp;P1;durP1;ratioP1;P2;durP2;ratioP2
22284;SDS011;11311;52.192;20.900;2023-05-27T00:00:02;24.75;;;6.47;;
22284;SDS011;11311;52.192;20.900;2023-05-27T00:02:31;20.57;;;6.30;;
22284;SDS011;11311;52.192;20.900;2023-05-27T00:05:01;12.60;;;3.88;;
22284;SDS011;11311;52.192;20.900;2023-05-27T00:07:30;7.85;;;3.83;;
22284;SDS011;11311;52.192;20.900;2023-05-27T00:09:59;15.27;;;5.07;;
22284;SDS011;11311;52.192;20.900;2023-05-27T00:12:28;11.32;;;4.93;;
22284;SDS011;11311;52.192;20.900;2023-05-27T00:14:58;13.13;;;4.40;;
22284;SDS011;11311;52.192;20.900;2023-05-27T00:17:28;15.40;;;4.30;;
22284;SDS011;11311;52.192;20.900;2023-05-27T00:19:56;17.50;;;5.05;;
22284;SDS011;11311;52.192;20.900;2023-05-27T00:22:32;13.68;;;5.20;;
22284;SDS011;11311;52.192;20.900;2023-05-27T00:25:02;15.63;;;6.10;;
22284;SDS011;11311;52.192;20.900;2023-05-27T00:27:31;16.70;;;5.00;;
22284;SDS011;11311;52.192;20.900;2023-05-27T00:30:02;11.50;;;4.05;;
22284;SDS011;11311;52.192;20.900;2023-05-27T00:32:31;15.73;;;6.03;;
22284;SDS011;11311;52.192;20.900;2023-05-27T00:35:00;13.82;;;5.22;;
22284;SDS011;11311;52.192;20.900;2023-05-27T00:37:29;16.85;;;5.90;;
22284;SDS011;11311;52.192;20.900;2023-05-27T00:39:58;12.90;;;4.40;;
22284;SDS011;11311;52.192;20.900;2023-05-27T00:42:27;20.40;;;4.57;;
22284;SDS011;11311;52.192;20.900;2023-05-27T00:44:56;18.13;;;4.82;;
22284;SDS011;11311;52.192;20.900;2023-05-27T00:47:26;14.20;;;4.72;;
22284;SDS011;11311;52.192;20.900;2023-05-27T00:49:58;14.18;;;5.07;;
22284;SDS011;11311;52.192;20.900;2023-05-27T00:52:28;15.38;;;4.70;;
22284;SDS011;11311;52.192;20.900;2023-05-27T00:54:57;15.15;;;4.95;;
22284;SDS011;11311;52.192;20.900;2023-05-27T00:57:27;20.00;;;4.60;;
22284;SDS011;11311;52.192;20.900;2023-05-27T00:59:56;13.18;;;4.85;;
22284;SDS011;11311;52.192;20.900;2023-05-27T01:02:27;13.82;;;5.32;;
22284;SDS011;11311;52.192;20.900;2023-05-27T01:04:56;19.77;;;5.22;;
22284;SDS011;11311;52.192;20.900;2023-05-27T01:07:26;20.38;;;5.65;;
22284;SDS011;11311;52.192;20.900;2023-05-27T01:10:00;14.85;;;4.97;;
22284;SDS011;11311;52.192;20.900;2023-05-27T01:12:35;14.07;;;4.38;;
22284;SDS011;11311;52.192;20.900;2023-05-27T01:15:06;18.77;;;5.00;;
22284;SDS011;11311;52.192;20.900;2023-05-27T01:17:39;12.05;;;4.20;;
22284;SDS011;11311;52.192;20.900;2023-05-27T01:20:10;14.90;;;5.10;;
22284;SDS011;11311;52.192;20.900;2023-05-27T01:22:41;18.08;;;5.15;;
22284;SDS011;11311;52.192;20.900;2023-05-27T01:25:11;8.38;;;4.25;;
22284;SDS011;11311;52.192;20.900;2023-05-27T01:27:40;26.07;;;5.43;;
22284;SDS011;11311;52.192;20.900;2023-05-27T01:30:10;16.25;;;5.82;;
22284;SDS011;11311;52.192;20.900;2023-05-27T01:32:41;17.42;;;4.88;;
22284;SDS011;11311;52.192;20.900;2023-05-27T01:35:14;12.98;;;5.20;;
22284;SDS011;11311;52.192;20.900;2023-05-27T01:37:47;14.18;;;4.93;;
22284;SDS011;11311;52.192;20.900;2023-05-27T01:40:17;19.35;;;4.95;;
22284;SDS011;11311;52.192;20.900;2023-05-27T01:42:47;18.90;;;5.43;;
22284;SDS011;11311;52.192;20.900;2023-05-27T01:45:16;14.30;;;4.70;;
22284;SDS011;11311;52.192;20.900;2023-05-27T01:47:45;22.65;;;5.00;;
22284;SDS011;11311;52.192;20.900;2023-05-27T01:50:14;15.63;;;4.93;;
22284;SDS011;11311;52.192;20.900;2023-05-27T01:52:43;18.02;;;4.88;;
22284;SDS011;11311;52.192;20.900;2023-05-27T01:55:14;23.65;;;5.97;;
22284;SDS011;11311;52.192;20.900;2023-05-27T01:57:44;16.02;;;4.78;;
22284;SDS011;11311;52.192;20.900;2023-05-27T02:00:14;16.92;;;5.20;;
22284;SDS011;11311;52.192;20.900;2023-05-27T02:02:43;11.27;;;4.22;;
22284;SDS011;11311;52.192;20.900;2023-05-27T02:05:14;16.25;;;5.15;;
22284;SDS011;11311;52.192;20.900;2023-05-27T02:07:43;12.83;;;4.23;;
22284;SDS011;11311;52.192;20.900;2023-05-27T02:10:14;15.45;;;4.47;;
22284;SDS011;11311;52.192;20.900;2023-05-27T02:12:43;12.45;;;4.18;;
22284;SDS011;11311;52.192;20.900;2023-05-27T02:15:12;15.98;;;5.75;;
22284;SDS011;11311;52.192;20.900;2023-05-27T02:17:42;17.15;;;5.63;;
22284;SDS011;11311;52.192;20.900;2023-05-27T02:20:15;18.10;;;5.00;;
22284;SDS011;11311;52.192;20.900;2023-05-27T02:22:44;20.23;;;5.07;;
22284;SDS011;11311;52.192;20.900;2023-05-27T02:25:15;14.20;;;5.30;;
22284;SDS011;11311;52.192;20.900;2023-05-27T02:27:44;20.67;;;5.70;;
22284;SDS011;11311;52.192;20.900;2023-05-27T02:30:15;11.82;;;5.25;;
22284;SDS011;11311;52.192;20.900;2023-05-27T02:32:44;14.45;;;4.90;;
22284;SDS011;11311;52.192;20.900;2023-05-27T02:35:13;18.38;;;4.90;;
22284;SDS011;11311;52.192;20.900;2023-05-27T02:37:42;14.23;;;5.03;;
22284;SDS011;11311;52.192;20.900;2023-05-27T02:40:12;15.65;;;5.45;;
22284;SDS011;11311;52.192;20.900;2023-05-27T02:42:50;30.00;;;6.22;;
22284;SDS011;11311;52.192;20.900;2023-05-27T02:45:19;15.15;;;5.20;;
22284;SDS011;11311;52.192;20.900;2023-05-27T02:50:18;16.48;;;5.97;;
22284;SDS011;11311;52.192;20.900;2023-05-27T02:52:47;15.15;;;4.90;;
22284;SDS011;11311;52.192;20.900;2023-05-27T02:55:16;14.25;;;6.05;;
22284;SDS011;11311;52.192;20.900;2023-05-27T02:57:45;14.13;;;5.03;;
22284;SDS011;11311;52.192;20.900;2023-05-27T03:00:19;17.00;;;5.60;;
22284;SDS011;11311;52.192;20.900;2023-05-27T03:02:48;16.45;;;5.57;;
22284;SDS011;11311;52.192;20.900;2023-05-27T03:05:18;16.77;;;5.70;;
22284;SDS011;11311;52.192;20.900;2023-05-27T03:07:49;18.70;;;5.45;;
22284;SDS011;11311;52.192;20.900;2023-05-27T03:10:18;16.17;;;5.40;;
22284;SDS011;11311;52.192;20.900;2023-05-27T03:12:47;19.05;;;4.82;;
22284;SDS011;11311;52.192;20.900;2023-05-27T03:15:18;14.85;;;5.22;;
22284;SDS011;11311;52.192;20.900;2023-05-27T03:17:49;21.17;;;6.20;;
22284;SDS011;11311;52.192;20.900;2023-05-27T03:20:19;15.45;;;4.60;;
22284;SDS011;11311;52.192;20.900;2023-05-27T03:22:49;16.00;;;5.10;;
22284;SDS011;11311;52.192;20.900;2023-05-27T03:25:18;17.00;;;5.57;;
22284;SDS011;11311;52.192;20.900;2023-05-27T03:27:48;13.70;;;5.80;;
22284;SDS011;11311;52.192;20.900;2023-05-27T03:30:18;21.17;;;5.15;;
22284;SDS011;11311;52.192;20.900;2023-05-27T03:32:51;15.75;;;5.20;;
22284;SDS011;11311;52.192;20.900;2023-05-27T03:35:27;17.05;;;4.43;;
22284;SDS011;11311;52.192;20.900;2023-05-27T03:37:56;20.77;;;5.45;;
22284;SDS011;11311;52.192;20.900;2023-05-27T03:40:24;21.75;;;5.03;;
22284;SDS011;11311;52.192;20.900;2023-05-27T03:42:54;14.52;;;4.93;;
22284;SDS011;11311;52.192;20.900;2023-05-27T03:45:25;14.10;;;4.82;;
22284;SDS011;11311;52.192;20.900;2023-05-27T03:47:55;18.58;;;4.93;;
22284;SDS011;11311;52.192;20.900;2023-05-27T03:50:24;19.67;;;5.18;;
22284;SDS011;11311;52.192;20.900;2023-05-27T03:52:53;15.90;;;5.60;;
22284;SDS011;11311;52.192;20.900;2023-05-27T03:55:23;13.50;;;5.35;;
22284;SDS011;11311;52.192;20.900;2023-05-27T03:57:52;25.48;;;5.32;;
22284;SDS011;11311;52.192;20.900;2023-05-27T04:00:21;19.88;;;5.97;;
22284;SDS011;11311;52.192;20.900;2023-05-27T04:02:53;15.57;;;5.40;;
22284;SDS011;11311;52.192;20.900;2023-05-27T04:05:23;17.85;;;5.25;;
22284;SDS011;11311;52.192;20.900;2023-05-27T04:07:52;16.52;;;5.60;;
22284;SDS011;11311;52.192;20.900;2023-05-27T04:10:21;16.98;;;5.25;;
22284;SDS011;11311;52.192;20.900;2023-05-27T04:12:50;12.52;;;4.75;;
22284;SDS011;11311;52.192;20.900;2023-05-27T04:15:19;15.73;;;5.43;;
22284;SDS011;11311;52.192;20.900;2023-05-27T04:17:48;20.60;;;6.28;;
22284;SDS011;11311;52.192;20.900;2023-05-27T04:20:18;19.85;;;5.75;;
22284;SDS011;11311;52.192;20.900;2023-05-27T04:22:52;15.27;;;5.32;;
22284;SDS011;11311;52.192;20.900;2023-05-27T04:25:22;13.25;;;4.82;;
22284;SDS011;11311;52.192;20.900;2023-05-27T04:28:02;18.17;;;5.28;;
22284;SDS011;11311;52.192;20.900;2023-05-27T04:30:34;15.25;;;5.18;;
22284;SDS011;11311;52.192;20.900;2023-05-27T04:33:10;19.17;;;6.20;;
22284;SDS011;11311;52.192;20.900;2023-05-27T04:35:41;11.57;;;4.55;;
22284;SDS011;11311;52.192;20.900;2023-05-27T04:38:12;14.45;;;5.55;;
22284;SDS011;11311;52.192;20.900;2023-05-27T04:40:52;17.55;;;6.60;;
22284;SDS011;11311;52.192;20.900;2023-05-27T04:43:42;12.63;;;4.47;;
22284;SDS011;11311;52.192;20.900;2023-05-27T04:46:14;14.52;;;5.00;;
22284;SDS011;11311;52.192;20.900;2023-05-27T04:48:44;17.13;;;4.45;;
22284;SDS011;11311;52.192;20.900;2023-05-27T04:51:15;17.42;;;5.68;;
22284;SDS011;11311;52.192;20.900;2023-05-27T04:53:44;15.32;;;4.97;;
22284;SDS011;11311;52.192;20.900;2023-05-27T04:56:16;10.55;;;4.35;;
22284;SDS011;11311;52.192;20.900;2023-05-27T04:58:45;11.43;;;5.10;;
22284;SDS011;11311;52.192;20.900;2023-05-27T05:01:19;12.02;;;4.72;;
22284;SDS011;11311;52.192;20.900;2023-05-27T05:04:01;12.52;;;4.45;;
22284;SDS011;11311;52.192;20.900;2023-05-27T05:07:07;12.82;;;4.68;;
22284;SDS011;11311;52.192;20.900;2023-05-27T05:09:39;12.70;;;4.82;;
22284;SDS011;11311;52.192;20.900;2023-05-27T05:12:15;13.35;;;4.13;;
22284;SDS011;11311;52.192;20.900;2023-05-27T05:14:47;17.33;;;4.25;;
22284;SDS011;11311;52.192;20.900;2023-05-27T05:17:16;13.95;;;4.03;;
22284;SDS011;11311;52.192;20.900;2023-05-27T05:19:44;13.90;;;4.30;;
22284;SDS011;11311;52.192;20.900;2023-05-27T05:22:15;8.80;;;4.03;;
22284;SDS011;11311;52.192;20.900;2023-05-27T05:24:48;13.52;;;3.70;;
22284;SDS011;11311;52.192;20.900;2023-05-27T05:27:23;12.25;;;4.63;;
22284;SDS011;11311;52.192;20.900;2023-05-27T05:29:53;12.13;;;4.57;;
22284;SDS011;11311;52.192;20.900;2023-05-27T05:32:22;19.17;;;3.63;;
22284;SDS011;11311;52.192;20.900;2023-05-27T05:34:51;10.82;;;3.85;;
22284;SDS011;11311;52.192;20.900;2023-05-27T05:37:21;12.00;;;3.65;;
22284;SDS011;11311;52.192;20.900;2023-05-27T05:39:53;10.05;;;3.45;;
22284;SDS011;11311;52.192;20.900;2023-05-27T05:42:23;10.10;;;3.80;;
22284;SDS011;11311;52.192;20.900;2023-05-27T05:44:53;7.72;;;3.72;;
22284;SDS011;11311;52.192;20.900;2023-05-27T05:47:22;8.50;;;2.80;;
22284;SDS011;11311;52.192;20.900;2023-05-27T05:50:01;10.43;;;3.38;;
22284;SDS011;11311;52.192;20.900;2023-05-27T05:52:32;9.40;;;2.70;;
22284;SDS011;11311;52.192;20.900;2023-05-27T05:57:30;12.02;;;3.58;;
22284;SDS011;11311;52.192;20.900;2023-05-27T06:00:04;10.82;;;3.53;;
22284;SDS011;11311;52.192;20.900;2023-05-27T06:02:43;7.17;;;2.67;;
22284;SDS011;11311;52.192;20.900;2023-05-27T06:05:32;10.27;;;3.47;;
22284;SDS011;11311;52.192;20.900;2023-05-27T06:08:03;10.90;;;2.50;;
22284;SDS011;11311;52.192;20.900;2023-05-27T06:10:34;9.38;;;3.10;;
22284;SDS011;11311;52.192;20.900;2023-05-27T06:13:04;9.00;;;2.85;;
22284;SDS011;11311;52.192;20.900;2023-05-27T06:15:34;6.32;;;2.60;;
22284;SDS011;11311;52.192;20.900;2023-05-27T06:18:03;7.97;;;2.78;;
22284;SDS011;11311;52.192;20.900;2023-05-27T06:20:33;15.75;;;2.80;;
22284;SDS011;11311;52.192;20.900;2023-05-27T06:23:03;6.85;;;2.90;;
22284;SDS011;11311;52.192;20.900;2023-05-27T06:25:39;7.00;;;2.90;;
22284;SDS011;11311;52.192;20.900;2023-05-27T06:28:08;7.57;;;2.60;;
22284;SDS011;11311;52.192;20.900;2023-05-27T06:30:37;7.00;;;2.75;;
22284;SDS011;11311;52.192;20.900;2023-05-27T06:33:10;8.80;;;3.40;;
22284;SDS011;11311;52.192;20.900;2023-05-27T06:35:39;6.67;;;2.60;;
22284;SDS011;11311;52.192;20.900;2023-05-27T06:38:10;8.40;;;2.85;;
22284;SDS011;11311;52.192;20.900;2023-05-27T06:40:39;6.32;;;2.55;;
22284;SDS011;11311;52.192;20.900;2023-05-27T06:43:09;5.80;;;2.92;;
22284;SDS011;11311;52.192;20.900;2023-05-27T06:45:50;9.52;;;2.40;;
22284;SDS011;11311;52.192;20.900;2023-05-27T06:48:47;7.03;;;3.05;;
22284;SDS011;11311;52.192;20.900;2023-05-27T06:51:16;11.45;;;2.60;;
22284;SDS011;11311;52.192;20.900;2023-05-27T06:53:46;5.60;;;2.15;;
22284;SDS011;11311;52.192;20.900;2023-05-27T06:56:21;8.00;;;2.63;;
22284;SDS011;11311;52.192;20.900;2023-05-27T06:58:50;5.47;;;2.83;;
22284;SDS011;11311;52.192;20.900;2023-05-27T07:01:20;5.95;;;2.33;;
22284;SDS011;11311;52.192;20.900;2023-05-27T07:03:56;4.70;;;2.00;;
22284;SDS011;11311;52.192;20.900;2023-05-27T07:06:37;13.93;;;3.90;;
22284;SDS011;11311;52.192;20.900;2023-05-27T07:09:08;8.05;;;2.97;;
22284;SDS011;11311;52.192;20.900;2023-05-27T07:11:38;6.57;;;3.17;;
22284;SDS011;11311;52.192;20.900;2023-05-27T07:14:12;3.58;;;2.00;;
22284;SDS011;11311;52.192;20.900;2023-05-27T07:16:42;6.32;;;2.65;;
22284;SDS011;11311;52.192;20.900;2023-05-27T07:19:11;6.72;;;3.03;;
22284;SDS011;11311;52.192;20.900;2023-05-27T07:21:52;7.15;;;2.50;;
22284;SDS011;11311;52.192;20.900;2023-05-27T07:24:24;6.05;;;2.40;;
22284;SDS011;11311;52.192;20.900;2023-05-27T07:26:55;15.60;;;3.08;;
22284;SDS011;11311;52.192;20.900;2023-05-27T07:29:27;6.78;;;1.83;;
22284;SDS011;11311;52.192;20.900;2023-05-27T07:32:18;10.38;;;3.33;;
22284;SDS011;11311;52.192;20.900;2023-05-27T07:34:49;11.82;;;2.53;;
22284;SDS011;11311;52.192;20.900;2023-05-27T07:37:18;9.65;;;2.47;;
22284;SDS011;11311;52.192;20.900;2023-05-27T07:39:48;6.55;;;1.85;;
22284;SDS011;11311;52.192;20.900;2023-05-27T07:42:18;9.77;;;2.20;;
22284;SDS011;11311;52.192;20.900;2023-05-27T07:44:47;6.88;;;2.55;;
22284;SDS011;11311;52.192;20.900;2023-05-27T07:47:16;5.15;;;2.13;;
22284;SDS011;11311;52.192;20.900;2023-05-27T07:49:45;3.65;;;1.83;;
22284;SDS011;11311;52.192;20.900;2023-05-27T07:52:40;7.63;;;1.88;;
22284;SDS011;11311;52.192;20.900;2023-05-27T07:55:23;5.32;;;2.53;;
22284;SDS011;11311;52.192;20.900;2023-05-27T07:57:53;6.65;;;2.30;;
22284;SDS011;11311;52.192;20.900;2023-05-27T08:00:26;8.52;;;2.20;;
22284;SDS011;11311;52.192;20.900;2023-05-27T08:02:55;5.50;;;1.92;;
22284;SDS011;11311;52.192;20.900;2023-05-27T08:05:45;7.10;;;1.97;;
22284;SDS011;11311;52.192;20.900;2023-05-27T08:08:33;7.43;;;2.15;;
22284;SDS011;11311;52.192;20.900;2023-05-27T08:11:07;12.77;;;2.00;;
22284;SDS011;11311;52.192;20.900;2023-05-27T08:13:47;7.20;;;1.95;;
22284;SDS011;11311;52.192;20.900;2023-05-27T08:16:35;9.23;;;2.17;;
22284;SDS011;11311;52.192;20.900;2023-05-27T08:19:24;6.40;;;2.13;;
22284;SDS011;11311;52.192;20.900;2023-05-27T08:22:09;4.00;;;2.13;;
22284;SDS011;11311;52.192;20.900;2023-05-27T08:25:03;11.85;;;1.83;;
22284;SDS011;11311;52.192;20.900;2023-05-27T08:27:46;7.35;;;1.98;;
22284;SDS011;11311;52.192;20.900;2023-05-27T08:30:56;4.53;;;1.95;;
22284;SDS011;11311;52.192;20.900;2023-05-27T08:33:41;8.40;;;1.73;;
22284;SDS011;11311;52.192;20.900;2023-05-27T08:36:11;5.38;;;1.77;;
22284;SDS011;11311;52.192;20.900;2023-05-27T08:38:45;5.80;;;1.83;;
22284;SDS011;11311;52.192;20.900;2023-05-27T08:43:57;2.63;;;1.67;;
22284;SDS011;11311;52.192;20.900;2023-05-27T08:46:46;5.88;;;1.80;;
22284;SDS011;11311;52.192;20.900;2023-05-27T08:49:18;5.18;;;1.60;;
22284;SDS011;11311;52.192;20.900;2023-05-27T08:51:48;2.95;;;1.60;;
22284;SDS011;11311;52.192;20.900;2023-05-27T08:54:21;8.77;;;1.65;;
22284;SDS011;11311;52.192;20.900;2023-05-27T08:56:53;3.03;;;1.40;;
22284;SDS011;11311;52.192;20.900;2023-05-27T08:59:25;4.40;;;1.48;;
22284;SDS011;11311;52.192;20.900;2023-05-27T09:04:23;3.22;;;1.98;;
22284;SDS011;11311;52.192;20.900;2023-05-27T09:06:53;3.42;;;1.85;;
22284;SDS011;11311;52.192;20.900;2023-05-27T09:09:22;2.67;;;1.17;;
22284;SDS011;11311;52.192;20.900;2023-05-27T09:11:51;2.38;;;1.45;;
22284;SDS011;11311;52.192;20.900;2023-05-27T09:14:22;2.17;;;1.30;;
22284;SDS011;11311;52.192;20.900;2023-05-27T09:16:52;5.20;;;1.83;;
22284;SDS011;11311;52.192;20.900;2023-05-27T09:19:21;6.35;;;1.85;;
22284;SDS011;11311;52.192;20.900;2023-05-27T09:21:51;5.82;;;1.55;;
22284;SDS011;11311;52.192;20.900;2023-05-27T09:24:22;5.35;;;1.27;;
22284;SDS011;11311;52.192;20.900;2023-05-27T09:26:51;3.22;;;1.30;;
22284;SDS011;11311;52.192;20.900;2023-05-27T09:29:22;3.33;;;1.20;;
22284;SDS011;11311;52.192;20.900;2023-05-27T09:31:54;2.45;;;1.33;;
22284;SDS011;11311;52.192;20.900;2023-05-27T09:34:24;7.13;;;1.65;;
22284;SDS011;11311;52.192;20.900;2023-05-27T09:36:56;2.85;;;1.42;;
22284;SDS011;11311;52.192;20.900;2023-05-27T09:39:26;2.45;;;1.38;;
22284;SDS011;11311;52.192;20.900;2023-05-27T09:41:55;13.43;;;2.10;;
22284;SDS011;11311;52.192;20.900;2023-05-27T09:44:27;6.68;;;1.23;;
22284;SDS011;11311;52.192;20.900;2023-05-27T09:46:58;6.65;;;1.73;;
22284;SDS011;11311;52.192;20.900;2023-05-27T09:49:29;3.35;;;1.67;;
22284;SDS011;11311;52.192;20.900;2023-05-27T09:51:58;2.60;;;2.30;;
22284;SDS011;11311;52.192;20.900;2023-05-27T09:54:28;4.00;;;1.65;;
22284;SDS011;11311;52.192;20.900;2023-05-27T09:59:27;2.65;;;1.40;;
22284;SDS011;11311;52.192;20.900;2023-05-27T10:01:58;5.45;;;1.58;;
22284;SDS011;11311;52.192;20.900;2023-05-27T10:04:29;1.50;;;0.90;;
22284;SDS011;11311;52.192;20.900;2023-05-27T10:06:59;4.25;;;1.45;;
22284;SDS011;11311;52.192;20.900;2023-05-27T10:09:28;2.92;;;1.25;;
22284;SDS011;11311;52.192;20.900;2023-05-27T10:11:58;5.55;;;1.15;;
22284;SDS011;11311;52.192;20.900;2023-05-27T10:14:28;5.07;;;1.33;;
22284;SDS011;11311;52.192;20.900;2023-05-27T10:16:59;3.95;;;1.27;;
22284;SDS011;11311;52.192;20.900;2023-05-27T10:21:56;4.03;;;1.20;;
22284;SDS011;11311;52.192;20.900;2023-05-27T10:24:35;6.63;;;1.60;;
22284;SDS011;11311;52.192;20.900;2023-05-27T10:27:04;3.50;;;1.13;;
22284;SDS011;11311;52.192;20.900;2023-05-27T10:29:37;2.90;;;1.83;;
22284;SDS011;11311;52.192;20.900;2023-05-27T10:32:08;2.92;;;1.13;;
22284;SDS011;11311;52.192;20.900;2023-05-27T10:37:06;7.00;;;1.55;;
22284;SDS011;11311;52.192;20.900;2023-05-27T10:39:35;4.23;;;1.43;;
22284;SDS011;11311;52.192;20.900;2023-05-27T10:42:04;3.73;;;1.47;;
22284;SDS011;11311;52.192;20.900;2023-05-27T10:44:34;4.63;;;1.15;;
22284;SDS011;11311;52.192;20.900;2023-05-27T10:47:12;2.63;;;1.33;;
22284;SDS011;11311;52.192;20.900;2023-05-27T10:49:45;4.55;;;1.45;;
22284;SDS011;11311;52.192;20.900;2023-05-27T10:52:15;1.80;;;1.10;;
22284;SDS011;11311;52.192;20.900;2023-05-27T10:54:45;5.90;;;1.40;;
22284;SDS011;11311;52.192;20.900;2023-05-27T10:57:16;1.95;;;1.25;;
22284;SDS011;11311;52.192;20.900;2023-05-27T11:02:17;7.25;;;1.50;;
22284;SDS011;11311;52.192;20.900;2023-05-27T11:04:48;4.40;;;1.38;;
22284;SDS011;11311;52.192;20.900;2023-05-27T11:07:17;3.78;;;1.40;;
22284;SDS011;11311;52.192;20.900;2023-05-27T11:09:49;3.22;;;1.08;;
22284;SDS011;11311;52.192;20.900;2023-05-27T11:12:19;6.70;;;1.63;;
22284;SDS011;11311;52.192;20.900;2023-05-27T11:14:50;2.67;;;1.17;;
22284;SDS011;11311;52.192;20.900;2023-05-27T11:17:21;4.68;;;1.25;;
22284;SDS011;11311;52.192;20.900;2023-05-27T11:19:50;3.20;;;1.05;;
22284;SDS011;11311;52.192;20.900;2023-05-27T11:22:19;1.63;;;1.25;;
22284;SDS011;11311;52.192;20.900;2023-05-27T11:24:55;2.85;;;1.38;;
22284;SDS011;11311;52.192;20.900;2023-05-27T11:27:25;3.92;;;1.30;;
22284;SDS011;11311;52.192;20.900;2023-05-27T11:30:05;3.65;;;1.20;;
22284;SDS011;11311;52.192;20.900;2023-05-27T11:32:39;5.70;;;1.35;;
22284;SDS011;11311;52.192;20.900;2023-05-27T11:35:14;6.93;;;1.27;;
22284;SDS011;11311;52.192;20.900;2023-05-27T11:37:46;5.13;;;1.33;;
22284;SDS011;11311;52.192;20.900;2023-05-27T11:40:18;2.50;;;1.13;;
22284;SDS011;11311;52.192;20.900;2023-05-27T11:42:47;1.45;;;0.95;;
22284;SDS011;11311;52.192;20.900;2023-05-27T11:45:17;1.30;;;1.05;;
22284;SDS011;11311;52.192;20.900;2023-05-27T11:47:48;2.22;;;1.50;;
22284;SDS011;11311;52.192;20.900;2023-05-27T11:50:19;2.63;;;1.38;;
22284;SDS011;11311;52.192;20.900;2023-05-27T11:52:51;3.78;;;1.50;;
22284;SDS011;11311;52.192;20.900;2023-05-27T11:55:21;3.92;;;1.33;;
22284;SDS011;11311;52.192;20.900;2023-05-27T11:57:50;6.78;;;1.67;;
22284;SDS011;11311;52.192;20.900;2023-05-27T12:00:20;2.15;;;1.73;;
22284;SDS011;11311;52.192;20.900;2023-05-27T12:02:50;3.95;;;1.02;;
22284;SDS011;11311;52.192;20.900;2023-05-27T12:05:20;9.68;;;1.40;;
22284;SDS011;11311;52.192;20.900;2023-05-27T12:08:00;2.30;;;1.30;;
22284;SDS011;11311;52.192;20.900;2023-05-27T12:10:30;2.20;;;1.17;;
22284;SDS011;11311;52.192;20.900;2023-05-27T12:13:03;10.65;;;1.38;;
22284;SDS011;11311;52.192;20.900;2023-05-27T12:15:32;3.90;;;1.33;;
22284;SDS011;11311;52.192;20.900;2023-05-27T12:18:02;4.50;;;1.05;;
22284;SDS011;11311;52.192;20.900;2023-05-27T12:20:31;2.42;;;0.80;;
22284;SDS011;11311;52.192;20.900;2023-05-27T12:23:01;3.33;;;1.20;;
22284;SDS011;11311;52.192;20.900;2023-05-27T12:25:30;4.13;;;1.27;;
22284;SDS011;11311;52.192;20.900;2023-05-27T12:27:59;2.65;;;1.40;;
22284;SDS011;11311;52.192;20.900;2023-05-27T12:30:28;2.95;;;0.90;;
22284;SDS011;11311;52.192;20.900;2023-05-27T12:32:57;3.55;;;1.10;;
22284;SDS011;11311;52.192;20.900;2023-05-27T12:35:29;6.55;;;1.73;;
22284;SDS011;11311;52.192;20.900;2023-05-27T12:37:58;3.03;;;1.00;;
22284;SDS011;11311;52.192;20.900;2023-05-27T12:40:27;5.15;;;1.30;;
22284;SDS011;11311;52.192;20.900;2023-05-27T12:42:56;3.30;;;1.30;;
22284;SDS011;11311;52.192;20.900;2023-05-27T12:45:25;3.72;;;1.10;;
22284;SDS011;11311;52.192;20.900;2023-05-27T12:47:54;8.18;;;1.15;;
22284;SDS011;11311;52.192;20.900;2023-05-27T12:50:23;2.05;;;0.93;;
22284;SDS011;11311;52.192;20.900;2023-05-27T12:52:53;3.08;;;1.35;;
22284;SDS011;11311;52.192;20.900;2023-05-27T12:55:22;4.00;;;1.85;;
22284;SDS011;11311;52.192;20.900;2023-05-27T12:57:52;2.63;;;1.27;;
22284;SDS011;11311;52.192;20.900;2023-05-27T13:00:21;2.50;;;1.13;;
22284;SDS011;11311;52.192;20.900;2023-05-27T13:02:50;4.80;;;1.40;;
22284;SDS011;11311;52.192;20.900;2023-05-27T13:05:19;4.20;;;1.48;;
22284;SDS011;11311;52.192;20.900;2023-05-27T13:07:56;3.10;;;0.80;;
22284;SDS011;11311;52.192;20.900;2023-05-27T13:10:26;4.03;;;1.27;;
22284;SDS011;11311;52.192;20.900;2023-05-27T13:12:57;6.05;;;1.38;;
22284;SDS011;11311;52.192;20.900;2023-05-27T13:15:27;2.80;;;1.30;;
22284;SDS011;11311;52.192;20.900;2023-05-27T13:20:26;3.20;;;0.95;;
22284;SDS011;11311;52.192;20.900;2023-05-27T13:22:58;2.15;;;1.33;;
22284;SDS011;11311;52.192;20.900;2023-05-27T13:25:28;7.43;;;1.27;;
22284;SDS011;11311;52.192;20.900;2023-05-27T13:27:58;3.15;;;1.20;;
22284;SDS011;11311;52.192;20.900;2023-05-27T13:30:27;4.55;;;1.02;;
22284;SDS011;11311;52.192;20.900;2023-05-27T13:32:57;1.67;;;1.08;;
22284;SDS011;11311;52.192;20.900;2023-05-27T13:35:26;5.80;;;1.05;;
22284;SDS011;11311;52.192;20.900;2023-05-27T13:37:55;9.20;;;1.17;;
22284;SDS011;11311;52.192;20.900;2023-05-27T13:40:29;6.72;;;1.42;;
22284;SDS011;11311;52.192;20.900;2023-05-27T13:42:58;3.88;;;1.23;;
22284;SDS011;11311;52.192;20.900;2023-05-27T13:45:27;3.97;;;1.05;;
22284;SDS011;11311;52.192;20.900;2023-05-27T13:50:25;5.10;;;1.55;;
22284;SDS011;11311;52.192;20.900;2023-05-27T13:52:55;3.35;;;1.55;;
22284;SDS011;11311;52.192;20.900;2023-05-27T13:55:24;4.00;;;1.52;;
22284;SDS011;11311;52.192;20.900;2023-05-27T13:57:54;1.83;;;1.13;;
22284;SDS011;11311;52.192;20.900;2023-05-27T14:00:23;8.02;;;1.45;;
22284;SDS011;11311;52.192;20.900;2023-05-27T14:02:53;6.43;;;1.42;;
22284;SDS011;11311;52.192;20.900;2023-05-27T14:05:22;8.13;;;1.30;;
22284;SDS011;11311;52.192;20.900;2023-05-27T14:07:51;5.22;;;2.20;;
22284;SDS011;11311;52.192;20.900;2023-05-27T14:10:20;5.35;;;1.10;;
22284;SDS011;11311;52.192;20.900;2023-05-27T14:12:49;6.75;;;1.10;;
22284;SDS011;11311;52.192;20.900;2023-05-27T14:15:21;3.35;;;2.10;;
22284;SDS011;11311;52.192;20.900;2023-05-27T14:17:51;7.43;;;1.30;;
22284;SDS011;11311;52.192;20.900;2023-05-27T14:20:20;5.85;;;1.65;;
22284;SDS011;11311;52.192;20.900;2023-05-27T14:22:49;3.92;;;1.17;;
22284;SDS011;11311;52.192;20.900;2023-05-27T14:25:18;5.77;;;0.90;;
22284;SDS011;11311;52.192;20.900;2023-05-27T14:27:47;6.40;;;1.52;;
22284;SDS011;11311;52.192;20.900;2023-05-27T14:30:17;7.38;;;1.40;;
22284;SDS011;11311;52.192;20.900;2023-05-27T14:32:47;6.13;;;1.45;;
22284;SDS011;11311;52.192;20.900;2023-05-27T14:35:16;1.67;;;1.10;;
22284;SDS011;11311;52.192;20.900;2023-05-27T14:37:45;2.70;;;1.55;;
22284;SDS011;11311;52.192;20.900;2023-05-27T14:40:14;4.60;;;1.02;;
22284;SDS011;11311;52.192;20.900;2023-05-27T14:42:43;2.88;;;1.05;;
22284;SDS011;11311;52.192;20.900;2023-05-27T14:45:12;6.68;;;1.40;;
22284;SDS011;11311;52.192;20.900;2023-05-27T14:47:41;1.02;;;0.95;;
22284;SDS011;11311;52.192;20.900;2023-05-27T14:50:12;3.15;;;1.33;;
22284;SDS011;11311;52.192;20.900;2023-05-27T14:52:40;3.22;;;1.23;;
22284;SDS011;11311;52.192;20.900;2023-05-27T14:55:10;3.13;;;1.33;;
22284;SDS011;11311;52.192;20.900;2023-05-27T14:57:39;3.20;;;2.10;;
22284;SDS011;11311;52.192;20.900;2023-05-27T15:00:08;2.60;;;1.30;;
22284;SDS011;11311;52.192;20.900;2023-05-27T15:02:38;5.05;;;2.05;;
22284;SDS011;11311;52.192;20.900;2023-05-27T15:05:08;4.43;;;1.88;;
22284;SDS011;11311;52.192;20.900;2023-05-27T15:07:39;5.18;;;1.88;;
22284;SDS011;11311;52.192;20.900;2023-05-27T15:10:08;2.03;;;1.75;;
22284;SDS011;11311;52.192;20.900;2023-05-27T15:15:08;3.92;;;2.00;;
22284;SDS011;11311;52.192;20.900;2023-05-27T15:17:40;2.35;;;1.33;;
22284;SDS011;11311;52.192;20.900;2023-05-27T15:20:11;5.45;;;1.48;;